createdAt,value
2023-03-24T00:01:24.767Z,15.31
2023-03-24T00:03:51.373Z,15.26
2023-03-24T00:06:18.027Z,15.20
2023-03-24T00:08:44.577Z,15.26
2023-03-24T00:11:11.138Z,15.24
2023-03-24T00:13:37.678Z,15.29
2023-03-24T00:16:04.239Z,15.15
2023-03-24T00:18:30.846Z,15.37
2023-03-24T00:20:57.397Z,15.20
2023-03-24T00:23:24.038Z,15.23
2023-03-24T00:25:50.582Z,15.26
2023-03-24T00:28:17.203Z,15.27
2023-03-24T00:30:43.948Z,15.40
2023-03-24T00:33:10.644Z,15.29
2023-03-24T00:35:37.241Z,15.07
2023-03-24T00:38:03.860Z,14.74
2023-03-24T00:40:30.406Z,14.95
2023-03-24T00:42:56.980Z,14.96
2023-03-24T00:45:23.840Z,14.96
2023-03-24T00:47:50.709Z,15.07
2023-03-24T00:50:17.372Z,14.93
2023-03-24T00:52:43.998Z,14.81
2023-03-24T00:55:10.627Z,14.69
2023-03-24T00:57:37.239Z,14.70
2023-03-24T01:00:03.783Z,14.91
2023-03-24T01:02:30.431Z,14.75
2023-03-24T01:04:57.044Z,14.90
2023-03-24T01:07:23.601Z,14.74
2023-03-24T01:09:50.259Z,14.85
2023-03-24T01:12:16.851Z,14.77
2023-03-24T01:14:43.396Z,14.81
2023-03-24T01:17:09.989Z,14.86
2023-03-24T01:19:36.568Z,14.76
2023-03-24T01:22:03.098Z,14.70
2023-03-24T01:24:29.713Z,14.65
2023-03-24T01:26:56.296Z,14.74
2023-03-24T01:29:22.897Z,14.83
2023-03-24T01:31:49.539Z,14.76
2023-03-24T01:34:16.178Z,14.43
2023-03-24T01:36:42.744Z,14.32
2023-03-24T01:39:09.979Z,13.87
2023-03-24T01:41:36.562Z,13.96
2023-03-24T01:46:47.227Z,14.01
2023-03-24T01:49:13.787Z,13.66
2023-03-24T01:51:40.385Z,13.92
2023-03-24T01:54:06.938Z,13.80
2023-03-24T01:56:33.671Z,13.90
2023-03-24T01:59:00.262Z,13.49
2023-03-24T02:01:26.867Z,13.51
2023-03-24T02:03:53.504Z,13.61
2023-03-24T02:06:20.189Z,13.87
2023-03-24T02:08:46.911Z,13.96
2023-03-24T02:11:13.516Z,14.14
2023-03-24T02:13:40.065Z,14.26
2023-03-24T02:16:06.736Z,14.12
2023-03-24T02:18:33.398Z,13.90
2023-03-24T02:21:00.015Z,13.82
2023-03-24T02:23:26.613Z,13.94
2023-03-24T02:25:53.210Z,14.13
2023-03-24T02:28:19.761Z,14.05
2023-03-24T02:30:46.472Z,14.31
2023-03-24T02:33:13.210Z,14.19
2023-03-24T02:35:39.816Z,14.12
2023-03-24T02:38:06.479Z,14.16
2023-03-24T02:40:33.067Z,14.31
2023-03-24T02:42:59.690Z,14.40
2023-03-24T02:45:26.238Z,14.41
2023-03-24T02:47:52.839Z,14.45
2023-03-24T02:50:19.408Z,14.11
2023-03-24T02:52:45.992Z,14.31
2023-03-24T02:55:12.580Z,14.43
2023-03-24T02:57:39.164Z,14.38
2023-03-24T03:00:05.724Z,14.38
2023-03-24T03:02:32.338Z,14.49
2023-03-24T03:04:58.974Z,14.45
2023-03-24T03:07:26.700Z,14.38
2023-03-24T03:09:53.300Z,14.22
2023-03-24T03:12:19.922Z,13.78
2023-03-24T03:14:46.575Z,13.68
2023-03-24T03:17:13.165Z,13.73
2023-03-24T03:19:39.726Z,13.58
2023-03-24T03:22:06.341Z,13.69
2023-03-24T03:24:32.934Z,13.85
2023-03-24T03:26:59.660Z,13.87
2023-03-24T03:29:26.217Z,14.05
2023-03-24T03:31:52.846Z,14.14
2023-03-24T03:34:21.478Z,13.96
2023-03-24T03:36:48.092Z,14.04
2023-03-24T03:39:14.737Z,13.90
2023-03-24T03:41:41.277Z,13.69
2023-03-24T03:44:07.865Z,13.45
2023-03-24T03:46:34.565Z,13.44
2023-03-24T03:49:01.224Z,13.64
2023-03-24T03:51:27.882Z,13.48
2023-03-24T03:53:54.439Z,13.73
2023-03-24T03:56:21.008Z,13.61
2023-03-24T03:58:47.593Z,13.47
2023-03-24T04:01:14.213Z,13.59
2023-03-24T04:03:40.965Z,13.61
2023-03-24T04:06:07.641Z,13.54
2023-03-24T04:08:34.275Z,13.58
2023-03-24T04:11:00.829Z,13.42
2023-03-24T04:13:27.375Z,13.64
2023-03-24T04:15:53.952Z,14.01
2023-03-24T04:18:20.556Z,14.34
2023-03-24T04:20:47.237Z,14.25
2023-03-24T04:23:14.476Z,14.11
2023-03-24T04:25:41.259Z,14.17
2023-03-24T04:28:07.817Z,13.81
2023-03-24T04:30:34.369Z,13.94
2023-03-24T04:33:00.968Z,13.81
2023-03-24T04:35:27.526Z,13.49
2023-03-24T04:37:54.114Z,13.15
2023-03-24T04:40:20.722Z,13.54
2023-03-24T04:42:47.348Z,13.59
2023-03-24T04:45:13.912Z,13.67
2023-03-24T04:47:40.528Z,13.33
2023-03-24T04:50:07.102Z,13.59
2023-03-24T04:52:33.691Z,13.50
2023-03-24T04:55:00.269Z,13.40
2023-03-24T04:57:26.836Z,13.36
2023-03-24T04:59:53.439Z,13.43
2023-03-24T05:02:21.683Z,13.94
2023-03-24T05:04:48.502Z,13.95
2023-03-24T05:07:15.077Z,14.04
2023-03-24T05:09:41.686Z,13.87
2023-03-24T05:12:08.253Z,13.77
2023-03-24T05:14:34.865Z,14.23
2023-03-24T05:17:01.406Z,13.90
2023-03-24T05:19:28.031Z,13.72
2023-03-24T05:21:54.602Z,14.06
2023-03-24T05:24:21.141Z,14.25
2023-03-24T05:26:47.741Z,14.28
2023-03-24T05:29:14.294Z,14.46
2023-03-24T05:31:40.842Z,14.69
2023-03-24T05:34:07.427Z,14.61
2023-03-24T05:36:34.265Z,14.12
2023-03-24T05:39:00.857Z,14.37
2023-03-24T05:41:27.397Z,14.14
2023-03-24T05:43:54.079Z,14.24
2023-03-24T05:46:20.640Z,14.61
2023-03-24T05:48:47.356Z,14.87
2023-03-24T05:51:13.994Z,14.86
2023-03-24T05:53:40.567Z,15.12
2023-03-24T05:56:07.187Z,15.16
2023-03-24T05:58:33.766Z,14.97
2023-03-24T06:01:00.359Z,15.30
2023-03-24T06:03:27.072Z,15.51
2023-03-24T06:05:53.697Z,15.36
2023-03-24T06:08:20.292Z,15.33
2023-03-24T06:10:46.907Z,15.03
2023-03-24T06:13:15.426Z,15.38
2023-03-24T06:15:41.999Z,15.71
2023-03-24T06:18:08.663Z,15.78
2023-03-24T06:20:35.266Z,16.02
2023-03-24T06:23:01.875Z,16.28
2023-03-24T06:25:28.436Z,16.37
2023-03-24T06:27:55.030Z,16.21
2023-03-24T06:30:21.646Z,16.47
2023-03-24T06:32:48.359Z,16.33
2023-03-24T06:35:14.956Z,16.20
2023-03-24T06:37:41.564Z,16.55
2023-03-24T06:40:08.299Z,16.71
2023-03-24T06:42:34.844Z,16.89
2023-03-24T06:45:01.470Z,17.25
2023-03-24T06:47:28.071Z,17.39
2023-03-24T06:49:54.685Z,17.58
2023-03-24T06:52:21.239Z,17.72
2023-03-24T06:54:47.781Z,17.98
2023-03-24T06:57:14.496Z,18.02
2023-03-24T06:59:41.127Z,18.28
2023-03-24T07:02:07.842Z,18.20
2023-03-24T07:04:34.465Z,18.01
2023-03-24T07:07:25.876Z,18.12
2023-03-24T07:09:47.694Z,18.18
2023-03-24T07:12:14.916Z,18.74
2023-03-24T07:14:41.554Z,19.03
2023-03-24T07:17:08.163Z,19.28
2023-03-24T07:19:34.717Z,19.23
2023-03-24T07:22:01.314Z,19.41
2023-03-24T07:24:30.563Z,19.64
2023-03-24T07:26:58.205Z,19.79
2023-03-24T07:29:24.779Z,19.57
2023-03-24T07:31:51.431Z,19.85
2023-03-24T07:34:18.084Z,20.07
2023-03-24T07:36:44.699Z,20.29
2023-03-24T07:39:11.262Z,20.60
2023-03-24T07:41:37.825Z,20.60
2023-03-24T07:44:04.369Z,20.68
2023-03-24T07:46:30.983Z,20.80
2023-03-24T07:49:03.269Z,20.75
2023-03-24T07:51:37.888Z,20.40
2023-03-24T07:54:06.341Z,20.52
2023-03-24T07:56:32.951Z,20.65
2023-03-24T07:58:59.574Z,20.67
2023-03-24T08:01:26.278Z,20.88
2023-03-24T08:03:53.073Z,21.07
2023-03-24T08:06:19.761Z,20.95
2023-03-24T08:08:46.370Z,20.86
2023-03-24T08:11:12.927Z,20.77
2023-03-24T08:13:39.465Z,20.60
2023-03-24T08:16:06.020Z,20.87
2023-03-24T08:18:32.584Z,21.18
2023-03-24T08:20:59.180Z,21.43
2023-03-24T08:23:25.775Z,21.70
2023-03-24T08:25:52.314Z,21.88
2023-03-24T08:28:18.890Z,21.99
2023-03-24T08:30:45.592Z,22.00
2023-03-24T08:33:12.674Z,22.01
2023-03-24T08:35:39.413Z,22.31
2023-03-24T08:38:07.167Z,22.28
2023-03-24T08:40:33.853Z,22.21
2023-03-24T08:43:00.441Z,22.52
2023-03-24T08:45:28.091Z,22.63
2023-03-24T08:47:54.774Z,22.80
2023-03-24T08:50:21.366Z,22.85
2023-03-24T08:52:47.937Z,22.74
2023-03-24T08:55:14.526Z,22.58
2023-03-24T08:57:41.121Z,22.66
2023-03-24T09:00:07.670Z,23.08
2023-03-24T09:02:34.296Z,23.10
2023-03-24T09:05:01.319Z,23.08
2023-03-24T09:07:27.958Z,22.59
2023-03-24T09:09:54.545Z,23.18
2023-03-24T09:12:21.101Z,23.82
2023-03-24T09:14:47.671Z,23.42
2023-03-24T09:17:14.243Z,23.65
2023-03-24T09:19:40.771Z,23.57
2023-03-24T09:22:07.329Z,23.91
2023-03-24T09:24:33.889Z,24.11
2023-03-24T09:27:00.569Z,24.78
2023-03-24T09:29:27.133Z,25.03
2023-03-24T09:31:53.730Z,25.58
2023-03-24T09:34:20.290Z,25.79
2023-03-24T09:36:46.865Z,25.85
2023-03-24T09:39:13.407Z,25.81
2023-03-24T09:41:40.064Z,25.87
2023-03-24T09:44:06.614Z,25.60
2023-03-24T09:46:33.174Z,25.57
2023-03-24T09:48:59.787Z,25.56
2023-03-24T09:51:26.400Z,24.99
2023-03-24T09:53:52.996Z,25.34
2023-03-24T09:56:19.562Z,25.53
2023-03-24T09:58:47.176Z,25.32
2023-03-24T10:01:13.784Z,25.59
2023-03-24T10:03:40.488Z,26.25
2023-03-24T10:06:07.041Z,25.02
2023-03-24T10:08:33.613Z,24.22
2023-03-24T10:11:00.190Z,23.95
2023-03-24T10:13:26.749Z,24.72
2023-03-24T10:15:53.672Z,25.60
2023-03-24T10:18:20.494Z,25.94
2023-03-24T10:20:47.071Z,25.77
2023-03-24T10:23:13.649Z,25.45
2023-03-24T10:25:40.187Z,25.28
2023-03-24T10:28:06.776Z,24.12
2023-03-24T10:30:33.386Z,25.20
2023-03-24T10:33:00.005Z,25.83
2023-03-24T10:35:26.616Z,25.85
2023-03-24T10:37:53.180Z,26.50
2023-03-24T10:40:19.733Z,26.62
2023-03-24T10:42:46.303Z,25.42
2023-03-24T10:45:12.886Z,25.82
2023-03-24T10:47:39.535Z,26.45
2023-03-24T10:50:14.253Z,26.72
2023-03-24T10:52:42.186Z,27.35
2023-03-24T10:55:08.815Z,26.67
2023-03-24T10:57:35.378Z,26.25
2023-03-24T11:00:01.980Z,25.95
2023-03-24T11:02:28.680Z,26.22
2023-03-24T11:04:55.442Z,26.83
2023-03-24T11:07:22.029Z,26.82
2023-03-24T11:12:39.701Z,26.09
2023-03-24T11:15:19.675Z,25.74
2023-03-24T11:17:48.264Z,25.63
2023-03-24T11:20:14.926Z,25.46
2023-03-24T11:22:41.525Z,26.10
2023-03-24T11:25:08.084Z,26.08
2023-03-24T11:27:34.600Z,26.33
2023-03-24T11:30:01.167Z,26.96
2023-03-24T11:32:27.748Z,25.97
2023-03-24T11:34:54.349Z,26.14
2023-03-24T11:37:20.892Z,26.76
2023-03-24T11:39:47.449Z,26.90
2023-03-24T11:42:14.027Z,26.56
2023-03-24T11:44:40.872Z,25.95
2023-03-24T11:47:07.647Z,25.75
2023-03-24T11:49:35.226Z,25.72
2023-03-24T11:52:02.293Z,25.61
2023-03-24T11:54:30.105Z,25.70
2023-03-24T11:56:58.733Z,26.13
2023-03-24T11:59:25.325Z,26.08
2023-03-24T12:01:54.223Z,25.90
2023-03-24T12:04:20.809Z,25.16
2023-03-24T12:06:47.422Z,25.05
2023-03-24T12:09:14.420Z,26.12
2023-03-24T12:11:41.055Z,26.57
2023-03-24T12:14:07.619Z,26.91
2023-03-24T12:16:34.287Z,27.21
2023-03-24T12:19:00.856Z,27.57
2023-03-24T12:21:27.555Z,27.27
2023-03-24T12:23:54.132Z,27.30
2023-03-24T12:26:20.731Z,26.63
2023-03-24T12:28:47.289Z,26.20
2023-03-24T12:31:13.869Z,25.90
2023-03-24T12:33:40.457Z,26.33
2023-03-24T12:36:07.159Z,26.68
2023-03-24T12:38:33.737Z,26.75
2023-03-24T12:41:00.301Z,26.54
2023-03-24T12:43:26.882Z,26.95
2023-03-24T12:45:53.503Z,26.73
2023-03-24T12:48:20.137Z,27.00
2023-03-24T12:50:46.740Z,27.02
2023-03-24T12:53:14.305Z,27.19
2023-03-24T12:55:41.025Z,27.38
2023-03-24T12:58:07.630Z,27.23
2023-03-24T13:00:34.199Z,27.23
2023-03-24T13:03:00.949Z,27.30
2023-03-24T13:05:27.660Z,27.41
2023-03-24T13:07:54.352Z,27.61
2023-03-24T13:10:20.923Z,27.48
2023-03-24T13:12:47.533Z,27.55
2023-03-24T13:15:14.170Z,27.55
2023-03-24T13:17:40.749Z,27.49
2023-03-24T13:20:07.337Z,27.20
2023-03-24T13:22:33.945Z,27.19
2023-03-24T13:25:00.518Z,26.84
2023-03-24T13:27:27.074Z,26.84
2023-03-24T13:29:53.840Z,26.67
2023-03-24T13:32:20.386Z,26.35
2023-03-24T13:34:46.948Z,26.59
2023-03-24T13:37:13.570Z,26.70
2023-03-24T13:39:40.230Z,26.94
2023-03-24T13:42:06.818Z,27.21
2023-03-24T13:44:33.390Z,27.15
2023-03-24T13:46:59.965Z,26.93
2023-03-24T13:49:26.623Z,27.08
2023-03-24T13:51:53.170Z,27.10
2023-03-24T13:54:19.711Z,27.21
2023-03-24T13:56:46.357Z,27.52
2023-03-24T13:59:12.934Z,27.79
2023-03-24T14:01:39.579Z,27.94
2023-03-24T14:04:06.213Z,27.89
2023-03-24T14:06:32.769Z,27.95
2023-03-24T14:08:59.329Z,27.90
2023-03-24T14:11:25.883Z,27.83
2023-03-24T14:13:52.442Z,27.72
2023-03-24T14:16:19.061Z,27.89
2023-03-24T14:18:45.665Z,27.76
2023-03-24T14:21:12.286Z,27.01
2023-03-24T14:23:38.827Z,27.06
2023-03-24T14:26:05.398Z,27.04
2023-03-24T14:28:31.984Z,27.45
2023-03-24T14:30:58.681Z,27.53
2023-03-24T14:33:25.308Z,27.23
2023-03-24T14:35:52.007Z,27.10
2023-03-24T14:38:18.621Z,27.18
2023-03-24T14:40:45.166Z,26.97
2023-03-24T14:43:11.724Z,27.33
2023-03-24T14:45:38.303Z,27.61
2023-03-24T14:48:04.877Z,27.72
2023-03-24T14:50:31.452Z,27.54
2023-03-24T14:52:58.046Z,27.46
2023-03-24T14:55:24.629Z,27.66
2023-03-24T14:57:51.251Z,27.68
2023-03-24T15:00:17.823Z,27.52
2023-03-24T15:02:44.406Z,27.56
2023-03-24T15:05:10.989Z,27.51
2023-03-24T15:07:37.678Z,27.59
2023-03-24T15:10:04.345Z,27.62
2023-03-24T15:12:30.994Z,27.60
2023-03-24T15:15:00.822Z,27.76
2023-03-24T15:17:27.562Z,28.08
2023-03-24T15:19:54.104Z,28.42
2023-03-24T15:22:20.670Z,28.65
2023-03-24T15:24:47.232Z,28.06
2023-03-24T15:27:13.815Z,28.69
2023-03-24T15:29:40.369Z,28.84
2023-03-24T15:32:07.002Z,28.42
2023-03-24T15:34:33.579Z,28.09
2023-03-24T15:37:00.130Z,28.09
2023-03-24T15:39:26.706Z,27.73
2023-03-24T15:41:53.296Z,27.69
2023-03-24T15:44:19.865Z,27.68
2023-03-24T15:46:46.524Z,27.48
2023-03-24T15:49:13.135Z,26.99
2023-03-24T15:51:39.716Z,26.77
2023-03-24T15:54:06.277Z,26.84
2023-03-24T15:56:32.886Z,26.95
2023-03-24T15:58:59.712Z,26.98
2023-03-24T16:01:26.293Z,26.23
2023-03-24T16:03:52.876Z,26.58
2023-03-24T16:06:19.564Z,26.08
2023-03-24T16:08:46.121Z,26.28
2023-03-24T16:11:12.689Z,26.11
2023-03-24T16:13:39.397Z,26.08
2023-03-24T16:16:05.949Z,26.11
2023-03-24T16:18:32.521Z,26.16
2023-03-24T16:20:59.106Z,26.35
2023-03-24T16:23:26.834Z,26.41
2023-03-24T16:25:53.482Z,26.41
2023-03-24T16:28:20.044Z,26.47
2023-03-24T16:30:46.790Z,26.54
2023-03-24T16:33:13.512Z,26.59
2023-03-24T16:35:40.127Z,26.37
2023-03-24T16:38:06.706Z,26.22
2023-03-24T16:40:33.286Z,26.08
2023-03-24T16:42:59.862Z,26.13
2023-03-24T16:45:26.464Z,26.10
2023-03-24T16:47:53.112Z,26.13
2023-03-24T16:50:20.704Z,26.10
2023-03-24T16:52:47.251Z,25.80
2023-03-24T16:55:13.826Z,25.68
2023-03-24T16:57:40.379Z,25.56
2023-03-24T17:00:06.957Z,25.46
2023-03-24T17:02:33.580Z,25.56
2023-03-24T17:05:00.211Z,25.53
2023-03-24T17:07:26.739Z,25.42
2023-03-24T17:09:53.285Z,25.41
2023-03-24T17:12:19.876Z,25.46
2023-03-24T17:14:46.436Z,25.21
2023-03-24T17:17:12.980Z,25.02
2023-03-24T17:19:39.520Z,25.01
2023-03-24T17:22:06.087Z,25.02
2023-03-24T17:24:32.685Z,24.71
2023-03-24T17:26:59.317Z,24.62
2023-03-24T17:29:25.898Z,24.46
2023-03-24T17:31:52.537Z,24.12
2023-03-24T17:34:21.985Z,23.73
2023-03-24T17:36:49.074Z,23.66
2023-03-24T17:39:15.671Z,23.62
2023-03-24T17:41:42.228Z,23.79
2023-03-24T17:44:08.820Z,23.83
2023-03-24T17:46:35.473Z,23.60
2023-03-24T17:49:02.101Z,23.61
2023-03-24T17:51:28.644Z,23.76
2023-03-24T17:53:55.221Z,23.79
2023-03-24T17:56:21.820Z,23.79
2023-03-24T17:58:48.448Z,23.77
2023-03-24T18:01:15.052Z,23.61
2023-03-24T18:03:41.674Z,23.43
2023-03-24T18:06:08.311Z,23.25
2023-03-24T18:08:34.937Z,23.13
2023-03-24T18:11:01.655Z,23.03
2023-03-24T18:13:28.240Z,23.18
2023-03-24T18:15:54.805Z,23.16
2023-03-24T18:18:21.413Z,23.10
2023-03-24T18:20:48.190Z,23.13
2023-03-24T18:23:14.943Z,23.06
2023-03-24T18:25:41.541Z,22.91
2023-03-24T18:28:08.103Z,23.07
2023-03-24T18:30:34.729Z,23.15
2023-03-24T18:33:01.346Z,23.05
2023-03-24T18:35:28.118Z,22.96
2023-03-24T18:37:54.750Z,23.03
2023-03-24T18:40:21.393Z,22.63
2023-03-24T18:42:47.966Z,22.86
2023-03-24T18:45:14.993Z,23.06
2023-03-24T18:47:41.697Z,23.13
2023-03-24T18:50:08.335Z,23.08
2023-03-24T18:52:34.929Z,23.09
2023-03-24T18:55:01.513Z,23.02
2023-03-24T18:57:28.093Z,22.99
2023-03-24T18:59:54.655Z,22.86
2023-03-24T19:02:21.248Z,22.86
2023-03-24T19:04:47.848Z,22.90
2023-03-24T19:07:14.533Z,22.82
2023-03-24T19:09:41.434Z,22.79
2023-03-24T19:12:08.012Z,22.79
2023-03-24T19:14:34.573Z,22.76
2023-03-24T19:17:01.116Z,22.67
2023-03-24T19:19:27.707Z,22.36
2023-03-24T19:21:54.262Z,22.42
2023-03-24T19:24:20.825Z,22.42
2023-03-24T19:26:47.409Z,22.41
2023-03-24T19:29:13.994Z,22.37
2023-03-24T19:31:40.594Z,22.37
2023-03-24T19:34:07.169Z,22.30
2023-03-24T19:36:33.748Z,22.12
2023-03-24T19:39:00.295Z,22.08
2023-03-24T19:41:26.890Z,22.03
2023-03-24T19:43:53.455Z,21.99
2023-03-24T19:46:20.121Z,22.08
2023-03-24T19:48:46.935Z,22.04
2023-03-24T19:51:13.498Z,21.90
2023-03-24T19:53:40.128Z,21.88
2023-03-24T19:56:06.729Z,21.82
2023-03-24T19:58:33.267Z,21.81
2023-03-24T20:00:59.829Z,21.80
2023-03-24T20:03:26.507Z,21.78
2023-03-24T20:05:53.322Z,21.74
2023-03-24T20:08:19.934Z,21.53
2023-03-24T20:10:46.623Z,21.40
2023-03-24T20:13:13.232Z,21.36
2023-03-24T20:15:39.834Z,21.39
2023-03-24T20:18:06.427Z,21.46
2023-03-24T20:20:33.034Z,21.49
2023-03-24T20:22:59.571Z,21.56
2023-03-24T20:25:26.173Z,21.61
2023-03-24T20:27:52.774Z,21.56
2023-03-24T20:30:19.341Z,21.33
2023-03-24T20:32:45.919Z,21.13
2023-03-24T20:35:12.545Z,21.18
2023-03-24T20:37:39.170Z,21.33
2023-03-24T20:40:05.801Z,21.29
2023-03-24T20:42:32.375Z,21.29
2023-03-24T20:44:58.923Z,21.31
2023-03-24T20:47:25.577Z,21.24
2023-03-24T20:49:52.182Z,21.09
2023-03-24T20:52:18.739Z,21.13
2023-03-24T20:54:45.287Z,20.90
2023-03-24T20:57:11.896Z,21.00
2023-03-24T20:59:38.498Z,21.14
2023-03-24T21:02:05.144Z,21.23
2023-03-24T21:04:31.752Z,20.97
2023-03-24T21:06:58.342Z,21.06
2023-03-24T21:09:24.893Z,21.12
2023-03-24T21:11:51.460Z,21.05
2023-03-24T21:14:18.007Z,21.21
2023-03-24T21:16:44.657Z,21.12
2023-03-24T21:19:11.313Z,21.02
2023-03-24T21:21:37.878Z,21.11
2023-03-24T21:24:04.455Z,21.16
2023-03-24T21:26:31.017Z,21.18
2023-03-24T21:28:57.587Z,21.11
2023-03-24T21:31:24.164Z,21.10
2023-03-24T21:33:50.820Z,20.97
2023-03-24T21:36:17.445Z,20.93
2023-03-24T21:38:44.101Z,20.88
2023-03-24T21:41:10.653Z,20.53
2023-03-24T21:43:37.222Z,20.20
2023-03-24T21:46:03.874Z,20.24
2023-03-24T21:48:30.546Z,20.05
2023-03-24T21:50:57.301Z,19.74
2023-03-24T21:53:24.038Z,19.94
2023-03-24T21:55:50.983Z,19.39
2023-03-24T21:58:18.057Z,18.64
2023-03-24T22:00:44.615Z,18.30
2023-03-24T22:03:11.203Z,18.02
2023-03-24T22:05:37.822Z,18.53
2023-03-24T22:08:04.379Z,18.25
2023-03-24T22:10:30.940Z,18.08
2023-03-24T22:12:57.500Z,17.99
2023-03-24T22:15:24.054Z,17.99
2023-03-24T22:17:50.667Z,17.83
2023-03-24T22:20:17.306Z,18.02
2023-03-24T22:22:43.877Z,17.95
2023-03-24T22:25:10.441Z,18.06
2023-03-24T22:27:36.993Z,17.71
2023-03-24T22:30:03.577Z,17.65
2023-03-24T22:32:30.193Z,17.67
2023-03-24T22:34:56.823Z,17.77
2023-03-24T22:37:23.447Z,17.82
2023-03-24T22:39:50.028Z,17.71
2023-03-24T22:42:16.576Z,17.42
2023-03-24T22:44:43.137Z,17.41
2023-03-24T22:47:09.735Z,17.43
2023-03-24T22:49:36.278Z,17.42
2023-03-24T22:52:02.836Z,17.17
2023-03-24T22:54:29.411Z,16.91
2023-03-24T22:56:56.026Z,17.12
2023-03-24T22:59:22.658Z,16.90
2023-03-24T23:01:56.111Z,16.92
2023-03-24T23:04:32.724Z,17.26
2023-03-24T23:06:59.280Z,17.48
2023-03-24T23:09:25.867Z,17.38
2023-03-24T23:11:52.440Z,17.25
2023-03-24T23:14:18.991Z,17.09
2023-03-24T23:16:45.676Z,17.37
2023-03-24T23:19:12.311Z,17.21
2023-03-24T23:21:38.865Z,17.01
2023-03-24T23:24:05.448Z,16.78
2023-03-24T23:26:32.023Z,16.76
2023-03-24T23:28:58.593Z,16.81
2023-03-24T23:31:25.172Z,16.87
2023-03-24T23:33:51.827Z,17.31
2023-03-24T23:36:19.372Z,17.46
2023-03-24T23:38:46.071Z,17.46
2023-03-24T23:41:12.645Z,17.21
2023-03-24T23:43:39.324Z,17.28
2023-03-24T23:46:05.930Z,16.97
2023-03-24T23:48:32.509Z,17.27
2023-03-24T23:50:59.086Z,17.20
2023-03-24T23:53:25.657Z,17.35
2023-03-24T23:55:52.336Z,17.33
2023-03-24T23:58:18.962Z,17.41
